sensor_id;sensor_type;location;lat;lon;timestamp;P1;P2;P0
68698;PMS7003;55680;48.850;2.310;2023-09-18T00:01:36;0.00;0.00;0.00
68698;PMS7003;55680;48.850;2.310;2023-09-18T00:04:01;0.00;0.00;0.00
68698;PMS7003;55680;48.850;2.310;2023-09-18T00:06:26;0.00;0.00;0.00
68698;PMS7003;55680;48.850;2.310;2023-09-18T00:08:52;0.00;0.00;0.00
68698;PMS7003;55680;48.850;2.310;2023-09-18T00:11:18;0.00;0.00;0.00
68698;PMS7003;55680;48.850;2.310;2023-09-18T00:13:44;0.00;0.00;0.00
68698;PMS7003;55680;48.850;2.310;2023-09-18T00:16:09;0.00;0.00;0.00
68698;PMS7003;55680;48.850;2.310;2023-09-18T00:18:35;0.00;0.00;0.00
68698;PMS7003;55680;48.850;2.310;2023-09-18T00:21:00;0.00;0.00;0.00
68698;PMS7003;55680;48.850;2.310;2023-09-18T00:23:26;0.25;0.00;0.00
68698;PMS7003;55680;48.850;2.310;2023-09-18T00:25:51;1.75;0.00;0.00
68698;PMS7003;55680;48.850;2.310;2023-09-18T00:28:17;0.25;0.00;0.00
68698;PMS7003;55680;48.850;2.310;2023-09-18T00:30:46;0.00;0.00;0.00
68698;PMS7003;55680;48.850;2.310;2023-09-18T00:33:13;0.00;0.00;0.00
68698;PMS7003;55680;48.850;2.310;2023-09-18T00:35:38;0.00;0.00;0.00
68698;PMS7003;55680;48.850;2.310;2023-09-18T00:38:03;1.75;0.00;0.00
68698;PMS7003;55680;48.850;2.310;2023-09-18T00:40:29;0.00;0.00;0.00
68698;PMS7003;55680;48.850;2.310;2023-09-18T00:42:54;0.00;0.00;0.00
68698;PMS7003;55680;48.850;2.310;2023-09-18T00:45:20;0.00;0.00;0.00
68698;PMS7003;55680;48.850;2.310;2023-09-18T00:47:45;0.00;0.00;0.00
68698;PMS7003;55680;48.850;2.310;2023-09-18T00:50:11;0.00;0.00;0.00
68698;PMS7003;55680;48.850;2.310;2023-09-18T00:52:38;0.00;0.00;0.00
68698;PMS7003;55680;48.850;2.310;2023-09-18T00:55:04;0.00;0.00;0.00
68698;PMS7003;55680;48.850;2.310;2023-09-18T00:57:31;0.00;0.00;0.00
68698;PMS7003;55680;48.850;2.310;2023-09-18T00:59:56;0.25;0.25;0.00
68698;PMS7003;55680;48.850;2.310;2023-09-18T01:02:22;0.00;0.00;0.00
68698;PMS7003;55680;48.850;2.310;2023-09-18T01:04:48;0.00;0.00;0.00
68698;PMS7003;55680;48.850;2.310;2023-09-18T01:07:14;0.00;0.00;0.00
68698;PMS7003;55680;48.850;2.310;2023-09-18T01:09:39;0.00;0.00;0.00
68698;PMS7003;55680;48.850;2.310;2023-09-18T01:17:14;0.00;0.00;0.00
68698;PMS7003;55680;48.850;2.310;2023-09-18T01:19:42;1.00;0.00;0.00
68698;PMS7003;55680;48.850;2.310;2023-09-18T01:22:16;0.00;0.00;0.00
68698;PMS7003;55680;48.850;2.310;2023-09-18T01:24:43;0.00;0.00;0.00
68698;PMS7003;55680;48.850;2.310;2023-09-18T01:27:11;0.00;0.00;0.00
68698;PMS7003;55680;48.850;2.310;2023-09-18T01:29:44;0.00;0.00;0.00
68698;PMS7003;55680;48.850;2.310;2023-09-18T01:32:12;0.00;0.00;0.00
68698;PMS7003;55680;48.850;2.310;2023-09-18T01:34:41;0.00;0.00;0.00
68698;PMS7003;55680;48.850;2.310;2023-09-18T01:37:10;0.00;0.00;0.00
68698;PMS7003;55680;48.850;2.310;2023-09-18T01:39:36;0.00;0.00;0.00
68698;PMS7003;55680;48.850;2.310;2023-09-18T01:42:04;0.00;0.00;0.00
68698;PMS7003;55680;48.850;2.310;2023-09-18T01:44:31;0.00;0.00;0.00
68698;PMS7003;55680;48.850;2.310;2023-09-18T01:47:04;0.00;0.00;0.00
68698;PMS7003;55680;48.850;2.310;2023-09-18T01:49:32;0.00;0.00;0.00
68698;PMS7003;55680;48.850;2.310;2023-09-18T01:51:59;0.00;0.00;0.00
68698;PMS7003;55680;48.850;2.310;2023-09-18T01:54:25;0.00;0.00;0.00
68698;PMS7003;55680;48.850;2.310;2023-09-18T01:56:51;0.00;0.00;0.00
68698;PMS7003;55680;48.850;2.310;2023-09-18T01:59:17;0.00;0.00;0.00
68698;PMS7003;55680;48.850;2.310;2023-09-18T02:01:43;0.00;0.00;0.00
68698;PMS7003;55680;48.850;2.310;2023-09-18T02:04:09;0.00;0.00;0.00
68698;PMS7003;55680;48.850;2.310;2023-09-18T02:06:34;0.00;0.00;0.00
68698;PMS7003;55680;48.850;2.310;2023-09-18T02:09:00;0.00;0.00;0.00
68698;PMS7003;55680;48.850;2.310;2023-09-18T02:11:26;0.00;0.00;0.00
68698;PMS7003;55680;48.850;2.310;2023-09-18T02:13:52;0.00;0.00;0.00
68698;PMS7003;55680;48.850;2.310;2023-09-18T02:16:17;0.00;0.00;0.00
68698;PMS7003;55680;48.850;2.310;2023-09-18T02:18:47;0.00;0.00;0.00
68698;PMS7003;55680;48.850;2.310;2023-09-18T02:21:18;0.00;0.00;0.00
68698;PMS7003;55680;48.850;2.310;2023-09-18T02:23:45;0.00;0.00;0.00
68698;PMS7003;55680;48.850;2.310;2023-09-18T02:26:10;0.00;0.00;0.00
68698;PMS7003;55680;48.850;2.310;2023-09-18T02:28:36;0.00;0.00;0.00
68698;PMS7003;55680;48.850;2.310;2023-09-18T02:31:01;0.00;0.00;0.00
68698;PMS7003;55680;48.850;2.310;2023-09-18T02:33:27;0.00;0.00;0.00
68698;PMS7003;55680;48.850;2.310;2023-09-18T02:35:53;0.00;0.00;0.00
68698;PMS7003;55680;48.850;2.310;2023-09-18T02:38:18;0.00;0.00;0.00
68698;PMS7003;55680;48.850;2.310;2023-09-18T02:40:43;0.00;0.00;0.00
68698;PMS7003;55680;48.850;2.310;2023-09-18T02:43:09;0.50;0.00;0.00
68698;PMS7003;55680;48.850;2.310;2023-09-18T02:45:34;0.00;0.00;0.00
68698;PMS7003;55680;48.850;2.310;2023-09-18T02:47:59;1.00;0.00;0.00
68698;PMS7003;55680;48.850;2.310;2023-09-18T02:50:25;0.00;0.00;0.00
68698;PMS7003;55680;48.850;2.310;2023-09-18T02:52:50;0.00;0.00;0.00
68698;PMS7003;55680;48.850;2.310;2023-09-18T02:55:16;0.00;0.00;0.00
68698;PMS7003;55680;48.850;2.310;2023-09-18T02:57:42;0.00;0.00;0.00
68698;PMS7003;55680;48.850;2.310;2023-09-18T03:00:07;0.00;0.00;0.00
68698;PMS7003;55680;48.850;2.310;2023-09-18T03:02:33;1.00;0.00;0.00
68698;PMS7003;55680;48.850;2.310;2023-09-18T03:04:59;0.00;0.00;0.00
68698;PMS7003;55680;48.850;2.310;2023-09-18T03:07:24;0.00;0.00;0.00
68698;PMS7003;55680;48.850;2.310;2023-09-18T03:09:49;0.00;0.00;0.00
68698;PMS7003;55680;48.850;2.310;2023-09-18T03:12:15;0.00;0.00;0.00
68698;PMS7003;55680;48.850;2.310;2023-09-18T03:14:40;0.50;0.00;0.00
68698;PMS7003;55680;48.850;2.310;2023-09-18T03:17:06;0.00;0.00;0.00
68698;PMS7003;55680;48.850;2.310;2023-09-18T03:19:31;0.00;0.00;0.00
68698;PMS7003;55680;48.850;2.310;2023-09-18T03:21:57;0.00;0.00;0.00
68698;PMS7003;55680;48.850;2.310;2023-09-18T03:24:22;0.00;0.00;0.00
68698;PMS7003;55680;48.850;2.310;2023-09-18T03:26:47;1.00;0.00;0.00
68698;PMS7003;55680;48.850;2.310;2023-09-18T03:29:14;0.00;0.00;0.00
68698;PMS7003;55680;48.850;2.310;2023-09-18T03:31:39;0.00;0.00;0.00
68698;PMS7003;55680;48.850;2.310;2023-09-18T03:34:05;1.00;0.00;0.00
68698;PMS7003;55680;48.850;2.310;2023-09-18T03:36:30;0.00;0.00;0.00
68698;PMS7003;55680;48.850;2.310;2023-09-18T03:38:56;0.00;0.00;0.00
68698;PMS7003;55680;48.850;2.310;2023-09-18T03:41:21;0.00;0.00;0.00
68698;PMS7003;55680;48.850;2.310;2023-09-18T03:43:47;0.00;0.00;0.00
68698;PMS7003;55680;48.850;2.310;2023-09-18T03:46:14;0.00;0.00;0.00
68698;PMS7003;55680;48.850;2.310;2023-09-18T03:48:39;0.00;0.00;0.00
68698;PMS7003;55680;48.850;2.310;2023-09-18T03:51:05;0.00;0.00;0.00
68698;PMS7003;55680;48.850;2.310;2023-09-18T03:53:34;0.50;0.00;0.00
68698;PMS7003;55680;48.850;2.310;2023-09-18T03:56:00;0.00;0.00;0.00
68698;PMS7003;55680;48.850;2.310;2023-09-18T03:58:25;2.00;0.00;0.00
68698;PMS7003;55680;48.850;2.310;2023-09-18T04:00:51;0.00;0.00;0.00
68698;PMS7003;55680;48.850;2.310;2023-09-18T04:03:17;0.75;0.00;0.00
68698;PMS7003;55680;48.850;2.310;2023-09-18T04:05:43;0.00;0.00;0.00
68698;PMS7003;55680;48.850;2.310;2023-09-18T04:08:09;0.00;0.00;0.00
68698;PMS7003;55680;48.850;2.310;2023-09-18T04:10:35;0.00;0.00;0.00
68698;PMS7003;55680;48.850;2.310;2023-09-18T04:13:01;0.50;0.00;0.00
68698;PMS7003;55680;48.850;2.310;2023-09-18T04:15:26;0.00;0.00;0.00
68698;PMS7003;55680;48.850;2.310;2023-09-18T04:17:52;0.00;0.00;0.00
68698;PMS7003;55680;48.850;2.310;2023-09-18T04:20:18;0.00;0.00;0.00
68698;PMS7003;55680;48.850;2.310;2023-09-18T04:22:44;0.00;0.00;0.00
68698;PMS7003;55680;48.850;2.310;2023-09-18T04:25:14;0.00;0.00;0.00
68698;PMS7003;55680;48.850;2.310;2023-09-18T04:27:40;0.00;0.00;0.00
68698;PMS7003;55680;48.850;2.310;2023-09-18T04:30:06;0.00;0.00;0.00
68698;PMS7003;55680;48.850;2.310;2023-09-18T04:32:34;0.00;0.00;0.00
68698;PMS7003;55680;48.850;2.310;2023-09-18T04:35:00;0.00;0.00;0.00
68698;PMS7003;55680;48.850;2.310;2023-09-18T04:37:26;0.00;0.00;0.00
68698;PMS7003;55680;48.850;2.310;2023-09-18T04:39:51;0.25;0.00;0.00
68698;PMS7003;55680;48.850;2.310;2023-09-18T04:42:17;0.00;0.00;0.00
68698;PMS7003;55680;48.850;2.310;2023-09-18T04:44:43;0.00;0.00;0.00
68698;PMS7003;55680;48.850;2.310;2023-09-18T04:47:08;0.00;0.00;0.00
68698;PMS7003;55680;48.850;2.310;2023-09-18T04:49:34;0.00;0.00;0.00
68698;PMS7003;55680;48.850;2.310;2023-09-18T04:51:59;1.00;1.00;0.00
68698;PMS7003;55680;48.850;2.310;2023-09-18T04:54:25;0.00;0.00;0.00
68698;PMS7003;55680;48.850;2.310;2023-09-18T04:56:50;0.00;0.00;0.00
68698;PMS7003;55680;48.850;2.310;2023-09-18T04:59:16;0.00;0.00;0.00
68698;PMS7003;55680;48.850;2.310;2023-09-18T05:01:41;0.00;0.00;0.00
68698;PMS7003;55680;48.850;2.310;2023-09-18T05:04:07;0.00;0.00;0.00
68698;PMS7003;55680;48.850;2.310;2023-09-18T05:06:33;1.75;0.00;0.00
68698;PMS7003;55680;48.850;2.310;2023-09-18T05:08:58;0.00;0.00;0.00
68698;PMS7003;55680;48.850;2.310;2023-09-18T05:11:23;1.00;0.00;0.00
68698;PMS7003;55680;48.850;2.310;2023-09-18T05:13:52;2.00;0.00;0.00
68698;PMS7003;55680;48.850;2.310;2023-09-18T05:16:20;1.25;0.00;0.00
68698;PMS7003;55680;48.850;2.310;2023-09-18T05:18:46;0.00;0.00;0.00
68698;PMS7003;55680;48.850;2.310;2023-09-18T05:21:11;0.00;0.00;0.00
68698;PMS7003;55680;48.850;2.310;2023-09-18T05:23:37;0.00;0.00;0.00
68698;PMS7003;55680;48.850;2.310;2023-09-18T05:26:02;0.00;0.00;0.00
68698;PMS7003;55680;48.850;2.310;2023-09-18T05:28:28;3.50;0.00;0.00
68698;PMS7003;55680;48.850;2.310;2023-09-18T05:30:53;0.00;0.00;0.00
68698;PMS7003;55680;48.850;2.310;2023-09-18T05:33:20;0.00;0.00;0.00
68698;PMS7003;55680;48.850;2.310;2023-09-18T05:35:45;4.00;0.00;0.00
68698;PMS7003;55680;48.850;2.310;2023-09-18T05:38:11;1.00;0.00;0.00
68698;PMS7003;55680;48.850;2.310;2023-09-18T05:40:38;4.00;0.00;0.00
68698;PMS7003;55680;48.850;2.310;2023-09-18T05:43:04;0.00;0.00;0.00
68698;PMS7003;55680;48.850;2.310;2023-09-18T05:45:29;0.00;0.00;0.00
68698;PMS7003;55680;48.850;2.310;2023-09-18T05:47:56;0.00;0.00;0.00
68698;PMS7003;55680;48.850;2.310;2023-09-18T05:50:31;0.00;0.00;0.00
68698;PMS7003;55680;48.850;2.310;2023-09-18T05:52:58;1.00;0.00;0.00
68698;PMS7003;55680;48.850;2.310;2023-09-18T05:55:25;0.00;0.00;0.00
68698;PMS7003;55680;48.850;2.310;2023-09-18T05:57:52;0.00;0.00;0.00
68698;PMS7003;55680;48.850;2.310;2023-09-18T06:00:18;3.00;1.00;0.00
68698;PMS7003;55680;48.850;2.310;2023-09-18T06:02:43;0.00;0.00;0.00
68698;PMS7003;55680;48.850;2.310;2023-09-18T06:05:10;0.00;0.00;0.00
68698;PMS7003;55680;48.850;2.310;2023-09-18T06:07:36;0.25;0.25;0.00
68698;PMS7003;55680;48.850;2.310;2023-09-18T06:10:01;0.00;0.00;0.00
68698;PMS7003;55680;48.850;2.310;2023-09-18T06:12:27;0.00;0.00;0.00
68698;PMS7003;55680;48.850;2.310;2023-09-18T06:14:52;0.00;0.00;0.00
68698;PMS7003;55680;48.850;2.310;2023-09-18T06:17:18;1.00;0.00;0.00
68698;PMS7003;55680;48.850;2.310;2023-09-18T06:19:44;0.00;0.00;0.00
68698;PMS7003;55680;48.850;2.310;2023-09-18T06:22:10;0.00;0.00;0.00
68698;PMS7003;55680;48.850;2.310;2023-09-18T06:24:36;0.25;0.25;0.00
68698;PMS7003;55680;48.850;2.310;2023-09-18T06:27:02;3.25;0.00;0.00
68698;PMS7003;55680;48.850;2.310;2023-09-18T06:29:33;0.00;0.00;0.00
68698;PMS7003;55680;48.850;2.310;2023-09-18T06:31:59;2.50;0.00;0.00
68698;PMS7003;55680;48.850;2.310;2023-09-18T06:34:25;0.25;0.25;0.00
68698;PMS7003;55680;48.850;2.310;2023-09-18T06:36:50;0.50;0.50;0.00
68698;PMS7003;55680;48.850;2.310;2023-09-18T06:39:16;0.00;0.00;0.00
68698;PMS7003;55680;48.850;2.310;2023-09-18T06:41:42;2.50;0.75;0.00
68698;PMS7003;55680;48.850;2.310;2023-09-18T06:44:07;0.00;0.00;0.00
68698;PMS7003;55680;48.850;2.310;2023-09-18T06:46:33;0.50;0.00;0.00
68698;PMS7003;55680;48.850;2.310;2023-09-18T06:48:58;0.25;0.25;0.00
68698;PMS7003;55680;48.850;2.310;2023-09-18T06:51:26;1.50;0.25;0.25
68698;PMS7003;55680;48.850;2.310;2023-09-18T06:53:52;0.50;0.50;0.00
68698;PMS7003;55680;48.850;2.310;2023-09-18T06:56:18;4.25;1.00;0.00
68698;PMS7003;55680;48.850;2.310;2023-09-18T06:58:43;0.25;0.00;0.00
68698;PMS7003;55680;48.850;2.310;2023-09-18T07:01:09;1.00;1.00;0.75
68698;PMS7003;55680;48.850;2.310;2023-09-18T07:03:35;1.00;1.00;0.00
68698;PMS7003;55680;48.850;2.310;2023-09-18T07:06:01;0.75;0.75;0.00
68698;PMS7003;55680;48.850;2.310;2023-09-18T07:08:27;1.00;1.00;1.00
68698;PMS7003;55680;48.850;2.310;2023-09-18T07:10:52;4.75;0.75;0.00
68698;PMS7003;55680;48.850;2.310;2023-09-18T07:13:18;1.25;1.00;0.00
68698;PMS7003;55680;48.850;2.310;2023-09-18T07:15:43;2.00;0.00;0.00
68698;PMS7003;55680;48.850;2.310;2023-09-18T07:18:09;1.00;1.00;0.50
68698;PMS7003;55680;48.850;2.310;2023-09-18T07:20:39;5.00;0.75;0.00
68698;PMS7003;55680;48.850;2.310;2023-09-18T07:23:05;1.75;1.00;1.00
68698;PMS7003;55680;48.850;2.310;2023-09-18T07:25:30;0.00;0.00;0.00
68698;PMS7003;55680;48.850;2.310;2023-09-18T07:27:56;4.00;0.50;0.00
68698;PMS7003;55680;48.850;2.310;2023-09-18T07:30:22;1.00;1.00;0.00
68698;PMS7003;55680;48.850;2.310;2023-09-18T07:32:51;0.00;0.00;0.00
68698;PMS7003;55680;48.850;2.310;2023-09-18T07:35:17;0.25;0.25;0.00
68698;PMS7003;55680;48.850;2.310;2023-09-18T07:37:44;0.00;0.00;0.00
68698;PMS7003;55680;48.850;2.310;2023-09-18T07:40:11;4.00;1.50;0.50
68698;PMS7003;55680;48.850;2.310;2023-09-18T07:42:37;1.25;1.25;1.00
68698;PMS7003;55680;48.850;2.310;2023-09-18T07:45:02;1.00;1.00;0.50
68698;PMS7003;55680;48.850;2.310;2023-09-18T07:47:28;1.75;0.75;0.00
68698;PMS7003;55680;48.850;2.310;2023-09-18T07:49:53;2.00;0.25;0.25
68698;PMS7003;55680;48.850;2.310;2023-09-18T07:52:19;3.00;2.00;1.25
68698;PMS7003;55680;48.850;2.310;2023-09-18T07:54:45;1.00;1.00;0.00
68698;PMS7003;55680;48.850;2.310;2023-09-18T07:57:10;1.25;1.25;0.75
68698;PMS7003;55680;48.850;2.310;2023-09-18T07:59:36;4.25;3.25;2.00
68698;PMS7003;55680;48.850;2.310;2023-09-18T08:02:02;1.00;1.00;0.50
68698;PMS7003;55680;48.850;2.310;2023-09-18T08:04:27;1.00;1.00;1.00
68698;PMS7003;55680;48.850;2.310;2023-09-18T08:06:53;0.00;0.00;0.00
68698;PMS7003;55680;48.850;2.310;2023-09-18T08:09:18;2.50;1.00;0.50
68698;PMS7003;55680;48.850;2.310;2023-09-18T08:11:43;2.00;2.00;1.50
68698;PMS7003;55680;48.850;2.310;2023-09-18T08:14:09;1.00;1.00;0.25
68698;PMS7003;55680;48.850;2.310;2023-09-18T08:16:35;1.00;1.00;0.75
68698;PMS7003;55680;48.850;2.310;2023-09-18T08:19:02;1.25;0.25;0.25
68698;PMS7003;55680;48.850;2.310;2023-09-18T08:21:28;3.50;1.00;0.50
68698;PMS7003;55680;48.850;2.310;2023-09-18T08:23:56;6.25;2.00;2.00
68698;PMS7003;55680;48.850;2.310;2023-09-18T08:26:22;1.25;1.25;1.00
68698;PMS7003;55680;48.850;2.310;2023-09-18T08:28:48;2.00;2.00;2.00
68698;PMS7003;55680;48.850;2.310;2023-09-18T08:31:13;1.00;1.00;0.25
68698;PMS7003;55680;48.850;2.310;2023-09-18T08:33:41;2.00;2.00;2.00
68698;PMS7003;55680;48.850;2.310;2023-09-18T08:36:07;1.00;1.00;1.00
68698;PMS7003;55680;48.850;2.310;2023-09-18T08:38:32;1.75;1.75;1.00
68698;PMS7003;55680;48.850;2.310;2023-09-18T08:40:58;1.00;1.00;1.00
68698;PMS7003;55680;48.850;2.310;2023-09-18T08:43:24;0.50;0.50;0.00
68698;PMS7003;55680;48.850;2.310;2023-09-18T08:45:53;2.00;0.50;0.50
68698;PMS7003;55680;48.850;2.310;2023-09-18T08:48:20;2.75;2.00;1.00
68698;PMS7003;55680;48.850;2.310;2023-09-18T08:50:47;2.50;1.25;1.00
68698;PMS7003;55680;48.850;2.310;2023-09-18T08:53:13;4.50;2.00;2.00
68698;PMS7003;55680;48.850;2.310;2023-09-18T08:55:40;1.50;1.00;0.00
68698;PMS7003;55680;48.850;2.310;2023-09-18T08:58:06;3.25;2.00;1.00
68698;PMS7003;55680;48.850;2.310;2023-09-18T09:00:33;1.25;1.25;1.00
68698;PMS7003;55680;48.850;2.310;2023-09-18T09:03:00;3.75;2.00;1.00
68698;PMS7003;55680;48.850;2.310;2023-09-18T09:05:26;5.50;1.75;1.00
68698;PMS7003;55680;48.850;2.310;2023-09-18T09:07:51;3.00;1.00;1.00
68698;PMS7003;55680;48.850;2.310;2023-09-18T09:10:17;0.25;0.25;0.25
68698;PMS7003;55680;48.850;2.310;2023-09-18T09:15:28;3.00;2.00;1.00
68698;PMS7003;55680;48.850;2.310;2023-09-18T09:18:04;1.25;1.25;1.25
68698;PMS7003;55680;48.850;2.310;2023-09-18T09:20:31;1.25;1.25;1.00
68698;PMS7003;55680;48.850;2.310;2023-09-18T09:23:00;1.50;1.50;1.00
68698;PMS7003;55680;48.850;2.310;2023-09-18T09:25:28;2.00;2.00;2.00
68698;PMS7003;55680;48.850;2.310;2023-09-18T09:27:56;2.00;2.00;1.00
68698;PMS7003;55680;48.850;2.310;2023-09-18T09:30:23;4.00;2.00;2.00
68698;PMS7003;55680;48.850;2.310;2023-09-18T09:32:51;3.00;1.00;1.00
68698;PMS7003;55680;48.850;2.310;2023-09-18T09:35:27;1.00;1.00;1.00
68698;PMS7003;55680;48.850;2.310;2023-09-18T09:37:56;1.00;1.00;1.00
68698;PMS7003;55680;48.850;2.310;2023-09-18T09:40:24;0.50;0.50;0.50
68698;PMS7003;55680;48.850;2.310;2023-09-18T09:42:51;1.00;1.00;1.00
68698;PMS7003;55680;48.850;2.310;2023-09-18T09:45:18;1.00;1.00;1.00
68698;PMS7003;55680;48.850;2.310;2023-09-18T09:47:44;3.00;1.00;1.00
68698;PMS7003;55680;48.850;2.310;2023-09-18T09:50:10;2.50;1.25;1.00
68698;PMS7003;55680;48.850;2.310;2023-09-18T09:52:48;1.00;1.00;0.25
68698;PMS7003;55680;48.850;2.310;2023-09-18T09:55:28;1.50;1.50;1.00
68698;PMS7003;55680;48.850;2.310;2023-09-18T09:57:56;1.00;1.00;0.25
68698;PMS7003;55680;48.850;2.310;2023-09-18T10:00:26;0.50;0.50;0.50
68698;PMS7003;55680;48.850;2.310;2023-09-18T10:02:58;1.00;1.00;0.00
68698;PMS7003;55680;48.850;2.310;2023-09-18T10:05:26;1.25;1.25;0.25
68698;PMS7003;55680;48.850;2.310;2023-09-18T10:07:55;0.75;0.75;0.75
68698;PMS7003;55680;48.850;2.310;2023-09-18T10:10:24;1.00;1.00;1.00
68698;PMS7003;55680;48.850;2.310;2023-09-18T10:12:51;1.50;1.50;1.00
68698;PMS7003;55680;48.850;2.310;2023-09-18T10:15:18;2.00;2.00;1.00
68698;PMS7003;55680;48.850;2.310;2023-09-18T10:17:45;2.75;1.00;0.25
68698;PMS7003;55680;48.850;2.310;2023-09-18T10:20:14;3.50;2.00;1.00
68698;PMS7003;55680;48.850;2.310;2023-09-18T10:22:46;0.25;0.25;0.25
68698;PMS7003;55680;48.850;2.310;2023-09-18T10:25:20;2.00;2.00;1.25
68698;PMS7003;55680;48.850;2.310;2023-09-18T10:27:48;1.00;1.00;1.00
68698;PMS7003;55680;48.850;2.310;2023-09-18T10:30:19;2.25;1.00;1.00
68698;PMS7003;55680;48.850;2.310;2023-09-18T10:32:47;1.00;1.00;1.00
68698;PMS7003;55680;48.850;2.310;2023-09-18T10:35:13;1.00;1.00;1.00
68698;PMS7003;55680;48.850;2.310;2023-09-18T10:37:41;0.00;0.00;0.00
68698;PMS7003;55680;48.850;2.310;2023-09-18T10:40:08;1.00;1.00;0.00
68698;PMS7003;55680;48.850;2.310;2023-09-18T10:42:35;0.00;0.00;0.00
68698;PMS7003;55680;48.850;2.310;2023-09-18T10:45:03;0.00;0.00;0.00
68698;PMS7003;55680;48.850;2.310;2023-09-18T10:47:29;2.00;0.75;0.50
68698;PMS7003;55680;48.850;2.310;2023-09-18T10:49:56;2.00;2.00;1.00
68698;PMS7003;55680;48.850;2.310;2023-09-18T10:52:21;1.75;1.75;0.00
68698;PMS7003;55680;48.850;2.310;2023-09-18T10:54:46;1.00;1.00;0.25
68698;PMS7003;55680;48.850;2.310;2023-09-18T10:57:12;1.00;1.00;1.00
68698;PMS7003;55680;48.850;2.310;2023-09-18T10:59:47;4.00;1.00;1.00
68698;PMS7003;55680;48.850;2.310;2023-09-18T11:02:16;0.00;0.00;0.00
68698;PMS7003;55680;48.850;2.310;2023-09-18T11:04:42;0.75;0.75;0.00
68698;PMS7003;55680;48.850;2.310;2023-09-18T11:07:09;0.50;0.50;0.25
68698;PMS7003;55680;48.850;2.310;2023-09-18T11:09:45;2.00;2.00;1.25
68698;PMS7003;55680;48.850;2.310;2023-09-18T11:12:10;0.00;0.00;0.00
68698;PMS7003;55680;48.850;2.310;2023-09-18T11:14:47;1.00;1.00;1.00
68698;PMS7003;55680;48.850;2.310;2023-09-18T11:17:35;1.00;1.00;0.00
68698;PMS7003;55680;48.850;2.310;2023-09-18T11:22:34;2.00;2.00;1.00
68698;PMS7003;55680;48.850;2.310;2023-09-18T11:28:25;1.00;1.00;0.75
68698;PMS7003;55680;48.850;2.310;2023-09-18T11:30:52;1.25;1.25;0.25
68698;PMS7003;55680;48.850;2.310;2023-09-18T11:33:56;1.00;1.00;0.25
68698;PMS7003;55680;48.850;2.310;2023-09-18T11:36:28;1.00;1.00;1.00
68698;PMS7003;55680;48.850;2.310;2023-09-18T11:38:57;1.25;1.25;0.75
68698;PMS7003;55680;48.850;2.310;2023-09-18T11:41:33;0.25;0.00;0.00
68698;PMS7003;55680;48.850;2.310;2023-09-18T11:46:47;0.50;0.50;0.00
68698;PMS7003;55680;48.850;2.310;2023-09-18T11:49:20;0.00;0.00;0.00
68698;PMS7003;55680;48.850;2.310;2023-09-18T11:51:47;1.00;0.00;0.00
68698;PMS7003;55680;48.850;2.310;2023-09-18T11:54:12;1.25;0.00;0.00
68698;PMS7003;55680;48.850;2.310;2023-09-18T11:56:39;0.50;0.50;0.50
68698;PMS7003;55680;48.850;2.310;2023-09-18T11:59:05;0.00;0.00;0.00
68698;PMS7003;55680;48.850;2.310;2023-09-18T12:01:31;1.50;0.25;0.00
68698;PMS7003;55680;48.850;2.310;2023-09-18T12:04:01;1.50;0.00;0.00
68698;PMS7003;55680;48.850;2.310;2023-09-18T12:06:32;1.00;1.00;1.00
68698;PMS7003;55680;48.850;2.310;2023-09-18T12:08:58;0.25;0.25;0.00
68698;PMS7003;55680;48.850;2.310;2023-09-18T12:11:23;0.00;0.00;0.00
68698;PMS7003;55680;48.850;2.310;2023-09-18T12:13:52;1.00;0.00;0.00
68698;PMS7003;55680;48.850;2.310;2023-09-18T12:16:17;0.00;0.00;0.00
68698;PMS7003;55680;48.850;2.310;2023-09-18T12:18:47;0.00;0.00;0.00
68698;PMS7003;55680;48.850;2.310;2023-09-18T12:21:14;2.00;1.00;0.00
68698;PMS7003;55680;48.850;2.310;2023-09-18T12:23:42;0.00;0.00;0.00
68698;PMS7003;55680;48.850;2.310;2023-09-18T12:26:10;0.00;0.00;0.00
68698;PMS7003;55680;48.850;2.310;2023-09-18T12:28:38;1.00;1.00;0.00
68698;PMS7003;55680;48.850;2.310;2023-09-18T12:31:04;2.25;0.75;0.25
68698;PMS7003;55680;48.850;2.310;2023-09-18T12:33:34;0.75;0.75;0.75
68698;PMS7003;55680;48.850;2.310;2023-09-18T12:36:01;2.50;1.25;0.25
68698;PMS7003;55680;48.850;2.310;2023-09-18T12:38:30;0.25;0.25;0.00
68698;PMS7003;55680;48.850;2.310;2023-09-18T12:40:56;0.00;0.00;0.00
68698;PMS7003;55680;48.850;2.310;2023-09-18T12:43:25;1.00;1.00;0.00
68698;PMS7003;55680;48.850;2.310;2023-09-18T12:45:54;0.00;0.00;0.00
68698;PMS7003;55680;48.850;2.310;2023-09-18T12:48:20;1.50;0.00;0.00
68698;PMS7003;55680;48.850;2.310;2023-09-18T12:50:51;0.75;0.75;0.75
68698;PMS7003;55680;48.850;2.310;2023-09-18T12:53:21;0.00;0.00;0.00
68698;PMS7003;55680;48.850;2.310;2023-09-18T12:55:47;0.00;0.00;0.00
68698;PMS7003;55680;48.850;2.310;2023-09-18T12:58:13;1.75;0.75;0.00
68698;PMS7003;55680;48.850;2.310;2023-09-18T13:00:44;0.75;0.75;0.00
68698;PMS7003;55680;48.850;2.310;2023-09-18T13:03:14;0.25;0.25;0.00
68698;PMS7003;55680;48.850;2.310;2023-09-18T13:05:40;1.00;1.00;0.50
68698;PMS7003;55680;48.850;2.310;2023-09-18T13:08:06;0.25;0.25;0.25
68698;PMS7003;55680;48.850;2.310;2023-09-18T13:10:44;1.00;1.00;0.25
68698;PMS7003;55680;48.850;2.310;2023-09-18T13:13:20;2.25;1.25;0.50
68698;PMS7003;55680;48.850;2.310;2023-09-18T13:15:46;0.00;0.00;0.00
68698;PMS7003;55680;48.850;2.310;2023-09-18T13:18:13;0.25;0.25;0.00
68698;PMS7003;55680;48.850;2.310;2023-09-18T13:20:39;0.25;0.25;0.00
68698;PMS7003;55680;48.850;2.310;2023-09-18T13:23:08;1.00;1.00;0.75
68698;PMS7003;55680;48.850;2.310;2023-09-18T13:25:37;1.50;0.25;0.00
68698;PMS7003;55680;48.850;2.310;2023-09-18T13:28:05;1.00;1.00;0.00
68698;PMS7003;55680;48.850;2.310;2023-09-18T13:30:32;0.00;0.00;0.00
68698;PMS7003;55680;48.850;2.310;2023-09-18T13:33:04;0.00;0.00;0.00
68698;PMS7003;55680;48.850;2.310;2023-09-18T13:35:31;0.00;0.00;0.00
68698;PMS7003;55680;48.850;2.310;2023-09-18T13:37:56;0.00;0.00;0.00
68698;PMS7003;55680;48.850;2.310;2023-09-18T13:40:22;0.00;0.00;0.00
68698;PMS7003;55680;48.850;2.310;2023-09-18T13:42:47;0.00;0.00;0.00
68698;PMS7003;55680;48.850;2.310;2023-09-18T13:45:14;0.00;0.00;0.00
68698;PMS7003;55680;48.850;2.310;2023-09-18T13:47:41;0.00;0.00;0.00
68698;PMS7003;55680;48.850;2.310;2023-09-18T13:50:06;0.00;0.00;0.00
68698;PMS7003;55680;48.850;2.310;2023-09-18T13:52:33;0.00;0.00;0.00
68698;PMS7003;55680;48.850;2.310;2023-09-18T13:54:59;0.00;0.00;0.00
68698;PMS7003;55680;48.850;2.310;2023-09-18T13:57:25;0.75;0.75;0.00
68698;PMS7003;55680;48.850;2.310;2023-09-18T13:59:50;0.00;0.00;0.00
68698;PMS7003;55680;48.850;2.310;2023-09-18T14:02:17;0.00;0.00;0.00
68698;PMS7003;55680;48.850;2.310;2023-09-18T14:04:44;0.00;0.00;0.00
68698;PMS7003;55680;48.850;2.310;2023-09-18T14:07:10;0.25;0.25;0.00
68698;PMS7003;55680;48.850;2.310;2023-09-18T14:09:36;0.00;0.00;0.00
68698;PMS7003;55680;48.850;2.310;2023-09-18T14:12:03;1.50;1.00;0.00
68698;PMS7003;55680;48.850;2.310;2023-09-18T14:14:28;1.00;1.00;0.75
68698;PMS7003;55680;48.850;2.310;2023-09-18T14:16:54;0.25;0.25;0.00
68698;PMS7003;55680;48.850;2.310;2023-09-18T14:19:20;0.00;0.00;0.00
68698;PMS7003;55680;48.850;2.310;2023-09-18T14:21:45;0.00;0.00;0.00
68698;PMS7003;55680;48.850;2.310;2023-09-18T14:24:11;0.00;0.00;0.00
68698;PMS7003;55680;48.850;2.310;2023-09-18T14:26:36;1.00;0.00;0.00
68698;PMS7003;55680;48.850;2.310;2023-09-18T14:29:08;0.00;0.00;0.00
68698;PMS7003;55680;48.850;2.310;2023-09-18T14:31:36;0.00;0.00;0.00
68698;PMS7003;55680;48.850;2.310;2023-09-18T14:34:02;0.00;0.00;0.00
68698;PMS7003;55680;48.850;2.310;2023-09-18T14:36:29;1.00;1.00;0.00
68698;PMS7003;55680;48.850;2.310;2023-09-18T14:38:55;0.00;0.00;0.00